sensor_id;sensor_type;location;lat;lon;timestamp;temperature;humidity
18335;DHT22;9293;49.524;10.964;2023-04-24T00:02:03;11.50;99.90
18335;DHT22;9293;49.524;10.964;2023-04-24T00:04:31;11.50;99.90
18335;DHT22;9293;49.524;10.964;2023-04-24T00:07:00;11.40;99.90
18335;DHT22;9293;49.524;10.964;2023-04-24T00:09:28;11.40;99.90
18335;DHT22;9293;49.524;10.964;2023-04-24T00:11:56;11.40;99.90
18335;DHT22;9293;49.524;10.964;2023-04-24T00:14:24;11.50;99.90
18335;DHT22;9293;49.524;10.964;2023-04-24T00:16:52;11.50;99.90
18335;DHT22;9293;49.524;10.964;2023-04-24T00:19:20;11.50;99.90
18335;DHT22;9293;49.524;10.964;2023-04-24T00:21:49;11.40;99.90
18335;DHT22;9293;49.524;10.964;2023-04-24T00:24:17;11.40;99.90
18335;DHT22;9293;49.524;10.964;2023-04-24T00:26:46;11.30;99.90
18335;DHT22;9293;49.524;10.964;2023-04-24T00:29:15;11.30;99.90
18335;DHT22;9293;49.524;10.964;2023-04-24T00:31:43;11.30;99.90
18335;DHT22;9293;49.524;10.964;2023-04-24T00:34:14;11.30;99.90
18335;DHT22;9293;49.524;10.964;2023-04-24T00:36:42;11.30;99.90
18335;DHT22;9293;49.524;10.964;2023-04-24T00:39:10;11.30;99.90
18335;DHT22;9293;49.524;10.964;2023-04-24T00:41:38;11.20;99.90
18335;DHT22;9293;49.524;10.964;2023-04-24T00:44:06;11.20;99.90
18335;DHT22;9293;49.524;10.964;2023-04-24T00:46:35;11.20;99.90
18335;DHT22;9293;49.524;10.964;2023-04-24T00:49:04;11.20;99.90
18335;DHT22;9293;49.524;10.964;2023-04-24T00:51:32;11.20;99.90
18335;DHT22;9293;49.524;10.964;2023-04-24T00:54:01;11.10;99.90
18335;DHT22;9293;49.524;10.964;2023-04-24T00:56:29;11.20;99.90
18335;DHT22;9293;49.524;10.964;2023-04-24T00:58:57;11.20;99.90
18335;DHT22;9293;49.524;10.964;2023-04-24T01:01:26;11.20;99.90
18335;DHT22;9293;49.524;10.964;2023-04-24T01:03:54;11.20;99.90
18335;DHT22;9293;49.524;10.964;2023-04-24T01:06:23;11.20;99.90
18335;DHT22;9293;49.524;10.964;2023-04-24T01:08:52;11.10;99.90
18335;DHT22;9293;49.524;10.964;2023-04-24T01:11:21;11.00;99.90
18335;DHT22;9293;49.524;10.964;2023-04-24T01:13:49;11.00;99.90
18335;DHT22;9293;49.524;10.964;2023-04-24T01:16:18;11.00;99.90
18335;DHT22;9293;49.524;10.964;2023-04-24T01:18:48;11.00;99.90
18335;DHT22;9293;49.524;10.964;2023-04-24T01:21:18;11.00;99.90
18335;DHT22;9293;49.524;10.964;2023-04-24T01:23:47;11.10;99.90
18335;DHT22;9293;49.524;10.964;2023-04-24T01:26:17;11.10;99.90
18335;DHT22;9293;49.524;10.964;2023-04-24T01:28:47;11.20;99.90
18335;DHT22;9293;49.524;10.964;2023-04-24T01:31:15;11.20;99.90
18335;DHT22;9293;49.524;10.964;2023-04-24T01:33:44;11.20;99.90
18335;DHT22;9293;49.524;10.964;2023-04-24T01:40:31;11.20;99.90
18335;DHT22;9293;49.524;10.964;2023-04-24T01:43:00;11.30;99.90
18335;DHT22;9293;49.524;10.964;2023-04-24T01:45:29;11.30;99.90
18335;DHT22;9293;49.524;10.964;2023-04-24T01:47:57;11.30;99.90
18335;DHT22;9293;49.524;10.964;2023-04-24T01:50:25;11.30;99.90
18335;DHT22;9293;49.524;10.964;2023-04-24T01:52:53;11.20;99.90
18335;DHT22;9293;49.524;10.964;2023-04-24T01:55:22;11.30;99.90
18335;DHT22;9293;49.524;10.964;2023-04-24T01:57:50;11.20;99.90
18335;DHT22;9293;49.524;10.964;2023-04-24T02:00:20;11.10;99.90
18335;DHT22;9293;49.524;10.964;2023-04-24T02:02:47;11.10;99.90
18335;DHT22;9293;49.524;10.964;2023-04-24T02:05:16;11.10;99.90
18335;DHT22;9293;49.524;10.964;2023-04-24T02:07:44;11.10;99.90
18335;DHT22;9293;49.524;10.964;2023-04-24T02:10:12;11.10;99.90
18335;DHT22;9293;49.524;10.964;2023-04-24T02:12:41;11.10;99.90
18335;DHT22;9293;49.524;10.964;2023-04-24T02:15:10;11.10;99.90
18335;DHT22;9293;49.524;10.964;2023-04-24T02:17:38;11.10;99.90
18335;DHT22;9293;49.524;10.964;2023-04-24T02:20:06;11.10;99.90
18335;DHT22;9293;49.524;10.964;2023-04-24T02:22:34;11.10;99.90
18335;DHT22;9293;49.524;10.964;2023-04-24T02:25:02;11.10;99.90
18335;DHT22;9293;49.524;10.964;2023-04-24T02:27:31;11.10;99.90
18335;DHT22;9293;49.524;10.964;2023-04-24T02:29:59;11.00;99.90
18335;DHT22;9293;49.524;10.964;2023-04-24T02:32:27;11.00;99.90
18335;DHT22;9293;49.524;10.964;2023-04-24T02:34:55;11.00;99.90
18335;DHT22;9293;49.524;10.964;2023-04-24T02:37:23;11.00;99.90
18335;DHT22;9293;49.524;10.964;2023-04-24T02:39:51;11.00;99.90
18335;DHT22;9293;49.524;10.964;2023-04-24T02:42:19;10.90;99.90
18335;DHT22;9293;49.524;10.964;2023-04-24T02:44:47;10.90;99.90
18335;DHT22;9293;49.524;10.964;2023-04-24T02:47:15;10.90;99.90
18335;DHT22;9293;49.524;10.964;2023-04-24T02:49:45;10.80;99.90
18335;DHT22;9293;49.524;10.964;2023-04-24T02:52:13;10.80;99.90
18335;DHT22;9293;49.524;10.964;2023-04-24T02:54:42;10.80;99.90
18335;DHT22;9293;49.524;10.964;2023-04-24T02:57:10;10.90;99.90
18335;DHT22;9293;49.524;10.964;2023-04-24T02:59:41;10.80;99.90
18335;DHT22;9293;49.524;10.964;2023-04-24T03:02:09;10.90;99.90
18335;DHT22;9293;49.524;10.964;2023-04-24T03:04:38;10.90;99.90
18335;DHT22;9293;49.524;10.964;2023-04-24T03:07:08;10.90;99.90
18335;DHT22;9293;49.524;10.964;2023-04-24T03:09:36;10.90;99.90
18335;DHT22;9293;49.524;10.964;2023-04-24T03:12:04;10.90;99.90
18335;DHT22;9293;49.524;10.964;2023-04-24T03:14:32;10.80;99.90
18335;DHT22;9293;49.524;10.964;2023-04-24T03:17:04;10.80;99.90
18335;DHT22;9293;49.524;10.964;2023-04-24T03:19:33;10.80;99.90
18335;DHT22;9293;49.524;10.964;2023-04-24T03:22:08;10.80;99.90
18335;DHT22;9293;49.524;10.964;2023-04-24T03:24:37;10.80;99.90
18335;DHT22;9293;49.524;10.964;2023-04-24T03:27:06;10.80;99.90
18335;DHT22;9293;49.524;10.964;2023-04-24T03:29:53;10.80;99.90
18335;DHT22;9293;49.524;10.964;2023-04-24T03:32:30;10.80;99.90
18335;DHT22;9293;49.524;10.964;2023-04-24T03:35:01;10.80;99.90
18335;DHT22;9293;49.524;10.964;2023-04-24T03:37:29;10.80;99.90
18335;DHT22;9293;49.524;10.964;2023-04-24T03:40:17;10.80;99.90
18335;DHT22;9293;49.524;10.964;2023-04-24T03:42:46;10.80;99.90
18335;DHT22;9293;49.524;10.964;2023-04-24T03:45:18;10.70;99.90
18335;DHT22;9293;49.524;10.964;2023-04-24T03:47:51;10.70;99.90
18335;DHT22;9293;49.524;10.964;2023-04-24T03:50:19;10.70;99.90
18335;DHT22;9293;49.524;10.964;2023-04-24T03:52:48;10.70;99.90
18335;DHT22;9293;49.524;10.964;2023-04-24T03:55:28;10.70;99.90
18335;DHT22;9293;49.524;10.964;2023-04-24T03:57:56;10.70;99.90
18335;DHT22;9293;49.524;10.964;2023-04-24T04:00:24;10.70;99.90
18335;DHT22;9293;49.524;10.964;2023-04-24T04:03:13;10.70;99.90
18335;DHT22;9293;49.524;10.964;2023-04-24T04:05:42;10.70;99.90
18335;DHT22;9293;49.524;10.964;2023-04-24T04:08:11;10.60;99.90
18335;DHT22;9293;49.524;10.964;2023-04-24T04:10:39;10.60;99.90
18335;DHT22;9293;49.524;10.964;2023-04-24T04:13:07;10.60;99.90
18335;DHT22;9293;49.524;10.964;2023-04-24T04:15:35;10.60;99.90
18335;DHT22;9293;49.524;10.964;2023-04-24T04:18:03;10.60;99.90
18335;DHT22;9293;49.524;10.964;2023-04-24T04:20:32;10.60;99.90
18335;DHT22;9293;49.524;10.964;2023-04-24T04:23:00;10.60;99.90
18335;DHT22;9293;49.524;10.964;2023-04-24T04:25:50;10.60;99.90
18335;DHT22;9293;49.524;10.964;2023-04-24T04:28:23;10.60;99.90
18335;DHT22;9293;49.524;10.964;2023-04-24T04:30:52;10.50;99.90
18335;DHT22;9293;49.524;10.964;2023-04-24T04:33:23;10.50;99.90
18335;DHT22;9293;49.524;10.964;2023-04-24T04:35:54;10.50;99.90
18335;DHT22;9293;49.524;10.964;2023-04-24T04:38:27;10.50;99.90
18335;DHT22;9293;49.524;10.964;2023-04-24T04:41:09;10.50;99.90
18335;DHT22;9293;49.524;10.964;2023-04-24T04:43:40;10.50;99.90
18335;DHT22;9293;49.524;10.964;2023-04-24T04:46:10;10.50;99.90
18335;DHT22;9293;49.524;10.964;2023-04-24T04:48:48;10.50;99.90
18335;DHT22;9293;49.524;10.964;2023-04-24T04:51:16;10.60;99.90
18335;DHT22;9293;49.524;10.964;2023-04-24T04:53:44;10.60;99.90
18335;DHT22;9293;49.524;10.964;2023-04-24T04:56:12;10.60;99.90
18335;DHT22;9293;49.524;10.964;2023-04-24T04:58:44;10.60;99.90
18335;DHT22;9293;49.524;10.964;2023-04-24T05:01:20;10.60;99.90
18335;DHT22;9293;49.524;10.964;2023-04-24T05:03:49;10.60;99.90
18335;DHT22;9293;49.524;10.964;2023-04-24T05:06:21;10.60;99.90
18335;DHT22;9293;49.524;10.964;2023-04-24T05:08:51;10.60;99.90
18335;DHT22;9293;49.524;10.964;2023-04-24T05:11:47;10.60;99.90
18335;DHT22;9293;49.524;10.964;2023-04-24T05:14:16;10.80;99.90
18335;DHT22;9293;49.524;10.964;2023-04-24T05:16:49;10.80;99.90
18335;DHT22;9293;49.524;10.964;2023-04-24T05:19:21;10.90;99.90
18335;DHT22;9293;49.524;10.964;2023-04-24T05:21:52;10.90;99.90
18335;DHT22;9293;49.524;10.964;2023-04-24T05:24:21;10.90;99.90
18335;DHT22;9293;49.524;10.964;2023-04-24T05:27:12;11.00;99.90
18335;DHT22;9293;49.524;10.964;2023-04-24T05:29:43;11.00;99.90
18335;DHT22;9293;49.524;10.964;2023-04-24T05:32:12;11.00;99.90
18335;DHT22;9293;49.524;10.964;2023-04-24T05:34:40;11.10;99.90
18335;DHT22;9293;49.524;10.964;2023-04-24T05:37:08;11.10;99.90
18335;DHT22;9293;49.524;10.964;2023-04-24T05:39:37;11.20;99.90
18335;DHT22;9293;49.524;10.964;2023-04-24T05:42:09;11.20;99.90
18335;DHT22;9293;49.524;10.964;2023-04-24T05:44:37;11.20;99.90
18335;DHT22;9293;49.524;10.964;2023-04-24T05:47:06;11.20;99.90
18335;DHT22;9293;49.524;10.964;2023-04-24T05:49:34;11.40;99.90
18335;DHT22;9293;49.524;10.964;2023-04-24T05:52:02;11.40;99.90
18335;DHT22;9293;49.524;10.964;2023-04-24T05:54:32;11.40;99.90
18335;DHT22;9293;49.524;10.964;2023-04-24T05:57:00;11.50;99.90
18335;DHT22;9293;49.524;10.964;2023-04-24T05:59:44;11.40;99.90
18335;DHT22;9293;49.524;10.964;2023-04-24T06:02:12;11.40;99.90
18335;DHT22;9293;49.524;10.964;2023-04-24T06:04:40;11.50;99.90
18335;DHT22;9293;49.524;10.964;2023-04-24T06:07:10;11.50;99.90
18335;DHT22;9293;49.524;10.964;2023-04-24T06:09:40;11.60;99.90
18335;DHT22;9293;49.524;10.964;2023-04-24T06:12:09;11.60;99.90
18335;DHT22;9293;49.524;10.964;2023-04-24T06:15:00;11.60;99.90
18335;DHT22;9293;49.524;10.964;2023-04-24T06:17:47;11.60;99.90
18335;DHT22;9293;49.524;10.964;2023-04-24T06:20:16;11.60;99.90
18335;DHT22;9293;49.524;10.964;2023-04-24T06:22:44;11.60;99.90
18335;DHT22;9293;49.524;10.964;2023-04-24T06:25:13;11.60;99.90
18335;DHT22;9293;49.524;10.964;2023-04-24T06:27:41;11.50;99.90
18335;DHT22;9293;49.524;10.964;2023-04-24T06:30:09;11.50;99.90
18335;DHT22;9293;49.524;10.964;2023-04-24T06:32:37;11.50;99.90
18335;DHT22;9293;49.524;10.964;2023-04-24T06:35:06;11.40;99.90
18335;DHT22;9293;49.524;10.964;2023-04-24T06:37:35;11.30;99.90
18335;DHT22;9293;49.524;10.964;2023-04-24T06:40:04;11.30;99.90
18335;DHT22;9293;49.524;10.964;2023-04-24T06:42:34;11.30;99.90
18335;DHT22;9293;49.524;10.964;2023-04-24T06:45:03;11.30;99.90
18335;DHT22;9293;49.524;10.964;2023-04-24T06:47:31;11.20;99.90
18335;DHT22;9293;49.524;10.964;2023-04-24T06:49:59;11.30;99.90
18335;DHT22;9293;49.524;10.964;2023-04-24T06:52:27;11.40;99.90
18335;DHT22;9293;49.524;10.964;2023-04-24T06:55:02;11.50;99.90
18335;DHT22;9293;49.524;10.964;2023-04-24T06:57:31;11.50;99.90
18335;DHT22;9293;49.524;10.964;2023-04-24T07:00:01;11.50;99.90
18335;DHT22;9293;49.524;10.964;2023-04-24T07:02:33;11.40;99.90
18335;DHT22;9293;49.524;10.964;2023-04-24T07:05:01;11.40;99.90
18335;DHT22;9293;49.524;10.964;2023-04-24T07:07:29;11.50;99.90
18335;DHT22;9293;49.524;10.964;2023-04-24T07:09:58;11.60;99.90
18335;DHT22;9293;49.524;10.964;2023-04-24T07:12:26;11.60;99.90
18335;DHT22;9293;49.524;10.964;2023-04-24T07:14:54;11.80;99.90
18335;DHT22;9293;49.524;10.964;2023-04-24T07:17:22;12.00;99.90
18335;DHT22;9293;49.524;10.964;2023-04-24T07:19:50;12.10;99.90
18335;DHT22;9293;49.524;10.964;2023-04-24T07:22:18;12.20;99.90
18335;DHT22;9293;49.524;10.964;2023-04-24T07:24:46;12.20;99.90
18335;DHT22;9293;49.524;10.964;2023-04-24T07:27:14;12.00;99.90
18335;DHT22;9293;49.524;10.964;2023-04-24T07:29:42;12.00;99.90
18335;DHT22;9293;49.524;10.964;2023-04-24T07:32:11;11.80;99.90
18335;DHT22;9293;49.524;10.964;2023-04-24T07:34:39;11.70;99.90
18335;DHT22;9293;49.524;10.964;2023-04-24T07:37:07;11.70;99.90
18335;DHT22;9293;49.524;10.964;2023-04-24T07:39:35;11.80;99.90
18335;DHT22;9293;49.524;10.964;2023-04-24T07:42:04;11.90;99.90
18335;DHT22;9293;49.524;10.964;2023-04-24T07:44:32;12.00;99.90
18335;DHT22;9293;49.524;10.964;2023-04-24T07:47:00;11.90;99.90
18335;DHT22;9293;49.524;10.964;2023-04-24T07:49:28;12.00;99.90
18335;DHT22;9293;49.524;10.964;2023-04-24T07:51:56;12.10;99.90
18335;DHT22;9293;49.524;10.964;2023-04-24T07:54:24;12.30;99.90
18335;DHT22;9293;49.524;10.964;2023-04-24T07:56:52;12.60;99.90
18335;DHT22;9293;49.524;10.964;2023-04-24T07:59:20;13.30;99.90
18335;DHT22;9293;49.524;10.964;2023-04-24T08:01:48;13.90;99.90
18335;DHT22;9293;49.524;10.964;2023-04-24T08:04:16;14.30;99.90
18335;DHT22;9293;49.524;10.964;2023-04-24T08:06:49;14.50;99.90
18335;DHT22;9293;49.524;10.964;2023-04-24T08:09:17;14.70;99.90
18335;DHT22;9293;49.524;10.964;2023-04-24T08:11:46;14.50;99.90
18335;DHT22;9293;49.524;10.964;2023-04-24T08:14:14;14.30;99.90
18335;DHT22;9293;49.524;10.964;2023-04-24T08:16:42;14.20;99.90
18335;DHT22;9293;49.524;10.964;2023-04-24T08:19:10;14.10;99.90
18335;DHT22;9293;49.524;10.964;2023-04-24T08:21:38;13.90;99.90
18335;DHT22;9293;49.524;10.964;2023-04-24T08:24:07;13.50;99.90
18335;DHT22;9293;49.524;10.964;2023-04-24T08:26:35;13.40;99.90
18335;DHT22;9293;49.524;10.964;2023-04-24T08:29:04;13.40;99.90
18335;DHT22;9293;49.524;10.964;2023-04-24T08:31:32;13.40;99.90
18335;DHT22;9293;49.524;10.964;2023-04-24T08:34:00;13.20;99.90
18335;DHT22;9293;49.524;10.964;2023-04-24T08:36:28;13.00;99.90
18335;DHT22;9293;49.524;10.964;2023-04-24T08:39:16;12.90;99.90
18335;DHT22;9293;49.524;10.964;2023-04-24T08:41:49;12.80;99.90
18335;DHT22;9293;49.524;10.964;2023-04-24T08:44:18;12.70;99.90
18335;DHT22;9293;49.524;10.964;2023-04-24T08:46:47;12.70;99.90
18335;DHT22;9293;49.524;10.964;2023-04-24T08:49:16;12.70;99.90
18335;DHT22;9293;49.524;10.964;2023-04-24T08:51:45;12.80;99.90
18335;DHT22;9293;49.524;10.964;2023-04-24T08:54:15;12.90;99.90
18335;DHT22;9293;49.524;10.964;2023-04-24T08:56:44;12.90;99.90
18335;DHT22;9293;49.524;10.964;2023-04-24T08:59:13;12.90;99.90
18335;DHT22;9293;49.524;10.964;2023-04-24T09:01:41;12.90;99.90
18335;DHT22;9293;49.524;10.964;2023-04-24T09:04:09;12.70;99.90
18335;DHT22;9293;49.524;10.964;2023-04-24T09:06:42;12.40;99.90
18335;DHT22;9293;49.524;10.964;2023-04-24T09:09:10;12.50;99.90
18335;DHT22;9293;49.524;10.964;2023-04-24T09:11:39;12.40;99.90
18335;DHT22;9293;49.524;10.964;2023-04-24T09:14:08;12.50;99.90
18335;DHT22;9293;49.524;10.964;2023-04-24T09:16:37;13.20;99.90
18335;DHT22;9293;49.524;10.964;2023-04-24T09:19:05;14.00;99.90
18335;DHT22;9293;49.524;10.964;2023-04-24T09:21:33;14.20;99.90
18335;DHT22;9293;49.524;10.964;2023-04-24T09:24:03;14.00;99.90
18335;DHT22;9293;49.524;10.964;2023-04-24T09:26:32;13.70;99.90
18335;DHT22;9293;49.524;10.964;2023-04-24T09:29:01;13.30;99.90
18335;DHT22;9293;49.524;10.964;2023-04-24T09:31:29;12.80;99.90
18335;DHT22;9293;49.524;10.964;2023-04-24T09:36:31;13.20;99.90
18335;DHT22;9293;49.524;10.964;2023-04-24T09:39:05;13.50;99.90
18335;DHT22;9293;49.524;10.964;2023-04-24T09:41:35;13.50;99.90
18335;DHT22;9293;49.524;10.964;2023-04-24T09:44:18;13.60;99.90
18335;DHT22;9293;49.524;10.964;2023-04-24T09:46:49;13.90;99.90
18335;DHT22;9293;49.524;10.964;2023-04-24T09:49:24;14.40;99.90
18335;DHT22;9293;49.524;10.964;2023-04-24T09:52:03;14.60;99.90
18335;DHT22;9293;49.524;10.964;2023-04-24T09:54:31;15.00;99.90
18335;DHT22;9293;49.524;10.964;2023-04-24T09:56:59;15.00;99.90
18335;DHT22;9293;49.524;10.964;2023-04-24T09:59:28;14.70;99.90
18335;DHT22;9293;49.524;10.964;2023-04-24T10:01:56;14.70;99.90
18335;DHT22;9293;49.524;10.964;2023-04-24T10:04:27;14.20;99.90
18335;DHT22;9293;49.524;10.964;2023-04-24T10:06:56;13.80;99.90
18335;DHT22;9293;49.524;10.964;2023-04-24T10:09:25;14.10;99.90
18335;DHT22;9293;49.524;10.964;2023-04-24T10:11:54;14.70;99.90
18335;DHT22;9293;49.524;10.964;2023-04-24T10:14:23;15.20;99.90
18335;DHT22;9293;49.524;10.964;2023-04-24T10:16:54;15.70;99.90
18335;DHT22;9293;49.524;10.964;2023-04-24T10:19:22;15.80;99.90
18335;DHT22;9293;49.524;10.964;2023-04-24T10:21:53;16.20;99.90
18335;DHT22;9293;49.524;10.964;2023-04-24T10:24:22;15.70;99.90
18335;DHT22;9293;49.524;10.964;2023-04-24T10:26:50;15.10;99.90
18335;DHT22;9293;49.524;10.964;2023-04-24T10:29:19;14.60;99.90
18335;DHT22;9293;49.524;10.964;2023-04-24T10:31:47;14.20;99.90
18335;DHT22;9293;49.524;10.964;2023-04-24T10:34:16;13.90;99.90
18335;DHT22;9293;49.524;10.964;2023-04-24T10:36:46;13.70;99.90
18335;DHT22;9293;49.524;10.964;2023-04-24T10:39:15;13.60;99.90
18335;DHT22;9293;49.524;10.964;2023-04-24T10:41:44;13.60;99.90
18335;DHT22;9293;49.524;10.964;2023-04-24T10:44:17;13.60;99.90
18335;DHT22;9293;49.524;10.964;2023-04-24T10:46:52;13.70;99.90
18335;DHT22;9293;49.524;10.964;2023-04-24T10:49:30;13.70;99.90
18335;DHT22;9293;49.524;10.964;2023-04-24T10:52:02;13.50;99.90
18335;DHT22;9293;49.524;10.964;2023-04-24T10:59:51;12.90;99.90
18335;DHT22;9293;49.524;10.964;2023-04-24T11:02:40;12.90;99.90
18335;DHT22;9293;49.524;10.964;2023-04-24T11:05:11;12.80;99.90
18335;DHT22;9293;49.524;10.964;2023-04-24T11:08:28;12.80;99.90
18335;DHT22;9293;49.524;10.964;2023-04-24T11:10:32;12.80;99.90
18335;DHT22;9293;49.524;10.964;2023-04-24T11:13:01;12.90;99.90
18335;DHT22;9293;49.524;10.964;2023-04-24T11:15:29;13.10;99.90
18335;DHT22;9293;49.524;10.964;2023-04-24T11:17:57;13.50;99.90
18335;DHT22;9293;49.524;10.964;2023-04-24T11:20:26;14.30;99.90
18335;DHT22;9293;49.524;10.964;2023-04-24T11:22:54;15.10;99.90
18335;DHT22;9293;49.524;10.964;2023-04-24T11:25:23;15.30;99.90
18335;DHT22;9293;49.524;10.964;2023-04-24T11:27:51;15.40;99.90
18335;DHT22;9293;49.524;10.964;2023-04-24T11:30:31;15.30;99.90
18335;DHT22;9293;49.524;10.964;2023-04-24T11:33:03;14.80;99.90
18335;DHT22;9293;49.524;10.964;2023-04-24T11:35:35;14.50;99.90
18335;DHT22;9293;49.524;10.964;2023-04-24T11:38:15;14.40;99.90
18335;DHT22;9293;49.524;10.964;2023-04-24T11:40:51;14.00;99.90
18335;DHT22;9293;49.524;10.964;2023-04-24T11:43:19;13.70;99.90
18335;DHT22;9293;49.524;10.964;2023-04-24T11:45:48;13.50;99.90
18335;DHT22;9293;49.524;10.964;2023-04-24T11:48:20;13.30;99.90
18335;DHT22;9293;49.524;10.964;2023-04-24T11:50:50;13.20;99.90
18335;DHT22;9293;49.524;10.964;2023-04-24T11:53:19;13.10;99.90
18335;DHT22;9293;49.524;10.964;2023-04-24T11:55:47;12.90;99.90
18335;DHT22;9293;49.524;10.964;2023-04-24T11:58:15;12.70;99.90
18335;DHT22;9293;49.524;10.964;2023-04-24T12:00:54;12.70;99.90
18335;DHT22;9293;49.524;10.964;2023-04-24T12:03:23;12.70;99.90
18335;DHT22;9293;49.524;10.964;2023-04-24T12:05:51;12.80;99.90
18335;DHT22;9293;49.524;10.964;2023-04-24T12:08:28;12.90;99.90
18335;DHT22;9293;49.524;10.964;2023-04-24T12:10:57;13.10;99.90
18335;DHT22;9293;49.524;10.964;2023-04-24T12:13:25;13.40;99.90
18335;DHT22;9293;49.524;10.964;2023-04-24T12:15:53;13.80;99.90
18335;DHT22;9293;49.524;10.964;2023-04-24T12:18:22;14.30;99.90
18335;DHT22;9293;49.524;10.964;2023-04-24T12:20:50;14.70;99.90
18335;DHT22;9293;49.524;10.964;2023-04-24T12:23:37;14.80;99.90
18335;DHT22;9293;49.524;10.964;2023-04-24T12:26:05;14.50;99.90
18335;DHT22;9293;49.524;10.964;2023-04-24T12:28:37;14.40;99.90
18335;DHT22;9293;49.524;10.964;2023-04-24T12:31:05;14.40;99.90
18335;DHT22;9293;49.524;10.964;2023-04-24T12:33:34;14.40;99.90
18335;DHT22;9293;49.524;10.964;2023-04-24T12:36:03;14.30;99.90
18335;DHT22;9293;49.524;10.964;2023-04-24T12:38:33;14.20;99.90
18335;DHT22;9293;49.524;10.964;2023-04-24T12:41:10;14.20;99.90
18335;DHT22;9293;49.524;10.964;2023-04-24T12:43:38;14.40;99.90
18335;DHT22;9293;49.524;10.964;2023-04-24T12:46:07;14.10;99.90
18335;DHT22;9293;49.524;10.964;2023-04-24T12:48:35;13.70;99.90
18335;DHT22;9293;49.524;10.964;2023-04-24T12:51:03;13.60;99.90
18335;DHT22;9293;49.524;10.964;2023-04-24T12:53:31;13.70;99.90
18335;DHT22;9293;49.524;10.964;2023-04-24T12:55:59;13.80;99.90
18335;DHT22;9293;49.524;10.964;2023-04-24T12:58:28;14.00;99.90
18335;DHT22;9293;49.524;10.964;2023-04-24T13:00:56;14.40;99.90
18335;DHT22;9293;49.524;10.964;2023-04-24T13:03:24;14.80;99.90
18335;DHT22;9293;49.524;10.964;2023-04-24T13:05:55;15.10;99.90
18335;DHT22;9293;49.524;10.964;2023-04-24T13:08:23;14.70;99.90
18335;DHT22;9293;49.524;10.964;2023-04-24T13:10:51;14.30;99.90
18335;DHT22;9293;49.524;10.964;2023-04-24T13:13:20;14.10;99.90
18335;DHT22;9293;49.524;10.964;2023-04-24T13:15:48;14.00;99.90
18335;DHT22;9293;49.524;10.964;2023-04-24T13:18:16;13.60;99.90
18335;DHT22;9293;49.524;10.964;2023-04-24T13:20:44;13.40;99.90
18335;DHT22;9293;49.524;10.964;2023-04-24T13:23:13;13.20;99.90
18335;DHT22;9293;49.524;10.964;2023-04-24T13:25:41;13.30;99.90
18335;DHT22;9293;49.524;10.964;2023-04-24T13:28:10;13.30;99.90
18335;DHT22;9293;49.524;10.964;2023-04-24T13:30:38;13.40;99.90
18335;DHT22;9293;49.524;10.964;2023-04-24T13:33:06;13.60;99.90
18335;DHT22;9293;49.524;10.964;2023-04-24T13:35:36;13.70;99.90
18335;DHT22;9293;49.524;10.964;2023-04-24T13:38:04;13.70;99.90
18335;DHT22;9293;49.524;10.964;2023-04-24T13:40:40;13.70;99.90
18335;DHT22;9293;49.524;10.964;2023-04-24T13:43:11;13.40;99.90
18335;DHT22;9293;49.524;10.964;2023-04-24T13:45:39;13.20;99.90
18335;DHT22;9293;49.524;10.964;2023-04-24T13:48:08;13.00;99.90
18335;DHT22;9293;49.524;10.964;2023-04-24T13:50:37;13.00;99.90
18335;DHT22;9293;49.524;10.964;2023-04-24T13:53:05;12.80;99.90
18335;DHT22;9293;49.524;10.964;2023-04-24T13:55:33;12.50;99.90
18335;DHT22;9293;49.524;10.964;2023-04-24T13:58:01;12.70;99.90
18335;DHT22;9293;49.524;10.964;2023-04-24T14:00:29;13.10;99.90
18335;DHT22;9293;49.524;10.964;2023-04-24T14:02:57;13.60;99.90
18335;DHT22;9293;49.524;10.964;2023-04-24T14:05:26;13.90;99.90
18335;DHT22;9293;49.524;10.964;2023-04-24T14:07:54;14.20;99.90
18335;DHT22;9293;49.524;10.964;2023-04-24T14:10:22;14.30;99.90
18335;DHT22;9293;49.524;10.964;2023-04-24T14:12:50;14.40;99.90
18335;DHT22;9293;49.524;10.964;2023-04-24T14:15:18;14.20;99.90
18335;DHT22;9293;49.524;10.964;2023-04-24T14:17:47;14.30;99.90
18335;DHT22;9293;49.524;10.964;2023-04-24T14:20:15;14.30;99.90
18335;DHT22;9293;49.524;10.964;2023-04-24T14:22:43;14.20;99.90
18335;DHT22;9293;49.524;10.964;2023-04-24T14:25:11;13.90;99.90
18335;DHT22;9293;49.524;10.964;2023-04-24T14:27:39;13.60;99.90
18335;DHT22;9293;49.524;10.964;2023-04-24T14:30:08;13.40;99.90
18335;DHT22;9293;49.524;10.964;2023-04-24T14:32:37;13.40;99.90
18335;DHT22;9293;49.524;10.964;2023-04-24T14:35:06;13.40;99.90
18335;DHT22;9293;49.524;10.964;2023-04-24T14:37:34;13.10;99.90
18335;DHT22;9293;49.524;10.964;2023-04-24T14:40:03;13.10;99.90
18335;DHT22;9293;49.524;10.964;2023-04-24T14:42:54;13.10;99.90
18335;DHT22;9293;49.524;10.964;2023-04-24T14:45:23;13.20;99.90
18335;DHT22;9293;49.524;10.964;2023-04-24T14:47:52;13.10;99.90
18335;DHT22;9293;49.524;10.964;2023-04-24T14:50:20;13.00;99.90
18335;DHT22;9293;49.524;10.964;2023-04-24T14:52:50;12.90;99.90
18335;DHT22;9293;49.524;10.964;2023-04-24T14:55:24;12.90;99.90
18335;DHT22;9293;49.524;10.964;2023-04-24T14:57:52;13.00;99.90
18335;DHT22;9293;49.524;10.964;2023-04-24T15:00:21;13.00;99.90
18335;DHT22;9293;49.524;10.964;2023-04-24T15:02:51;13.30;99.90
18335;DHT22;9293;49.524;10.964;2023-04-24T15:05:19;13.60;99.90
18335;DHT22;9293;49.524;10.964;2023-04-24T15:07:48;13.90;99.90
18335;DHT22;9293;49.524;10.964;2023-04-24T15:10:18;13.90;99.90
18335;DHT22;9293;49.524;10.964;2023-04-24T15:12:46;13.60;99.90
18335;DHT22;9293;49.524;10.964;2023-04-24T15:15:14;13.40;99.90
18335;DHT22;9293;49.524;10.964;2023-04-24T15:17:42;13.40;99.90
18335;DHT22;9293;49.524;10.964;2023-04-24T15:20:10;13.70;99.90
18335;DHT22;9293;49.524;10.964;2023-04-24T15:22:38;13.90;99.90
18335;DHT22;9293;49.524;10.964;2023-04-24T15:25:07;13.90;99.90
18335;DHT22;9293;49.524;10.964;2023-04-24T15:27:39;14.00;99.90
18335;DHT22;9293;49.524;10.964;2023-04-24T15:30:08;13.90;99.90
18335;DHT22;9293;49.524;10.964;2023-04-24T15:32:36;13.60;99.90
18335;DHT22;9293;49.524;10.964;2023-04-24T15:35:05;13.30;99.90
18335;DHT22;9293;49.524;10.964;2023-04-24T15:37:36;13.10;99.90
18335;DHT22;9293;49.524;10.964;2023-04-24T15:40:05;12.90;99.90
18335;DHT22;9293;49.524;10.964;2023-04-24T15:42:34;12.90;99.90
18335;DHT22;9293;49.524;10.964;2023-04-24T15:45:03;12.80;99.90
18335;DHT22;9293;49.524;10.964;2023-04-24T15:47:34;12.70;99.90
18335;DHT22;9293;49.524;10.964;2023-04-24T15:50:03;12.50;99.90
18335;DHT22;9293;49.524;10.964;2023-04-24T15:52:31;12.50;99.90
18335;DHT22;9293;49.524;10.964;2023-04-24T15:54:59;12.40;99.90
18335;DHT22;9293;49.524;10.964;2023-04-24T15:57:27;12.40;99.90
18335;DHT22;9293;49.524;10.964;2023-04-24T15:59:55;12.30;99.90